createdAt,value
2023-04-16T00:01:44.513Z,100390.00
2023-04-16T00:04:13.216Z,100386.06
2023-04-16T00:06:41.361Z,100378.28
2023-04-16T00:09:09.210Z,100379.22
2023-04-16T00:11:39.410Z,100385.53
2023-04-16T00:14:07.034Z,100387.59
2023-04-16T00:16:34.680Z,100379.56
2023-04-16T00:19:02.719Z,100383.09
2023-04-16T00:21:31.235Z,100387.16
2023-04-16T00:23:59.187Z,100388.47
2023-04-16T00:26:27.191Z,100398.28
2023-04-16T00:28:54.969Z,100389.69
2023-04-16T00:31:30.712Z,100393.09
2023-04-16T00:33:59.746Z,100394.66
2023-04-16T00:36:28.218Z,100398.19
2023-04-16T00:38:57.169Z,100392.44
2023-04-16T00:41:25.020Z,100399.03
2023-04-16T00:43:52.942Z,100398.50
2023-04-16T00:46:23.472Z,100397.38
2023-04-16T00:48:53.147Z,100397.31
2023-04-16T00:51:21.689Z,100404.78
2023-04-16T00:53:49.604Z,100406.94
2023-04-16T00:56:18.258Z,100401.34
2023-04-16T00:58:45.849Z,100394.44
2023-04-16T01:01:17.018Z,100399.78
2023-04-16T01:03:48.023Z,100389.66
2023-04-16T01:06:18.814Z,100398.50
2023-04-16T01:08:47.590Z,100393.00
2023-04-16T01:11:16.002Z,100401.75
2023-04-16T01:13:43.747Z,100405.00
2023-04-16T01:16:13.013Z,100403.31
2023-04-16T01:18:40.941Z,100401.00
2023-04-16T01:21:09.570Z,100401.72
2023-04-16T01:23:37.469Z,100402.63
2023-04-16T01:26:05.185Z,100403.00
2023-04-16T01:28:34.804Z,100402.03
2023-04-16T01:31:02.597Z,100396.22
2023-04-16T01:33:46.212Z,100396.38
2023-04-16T01:36:13.755Z,100394.34
2023-04-16T01:38:41.592Z,100392.63
2023-04-16T01:41:09.496Z,100402.78
2023-04-16T01:43:39.033Z,100403.91
2023-04-16T01:46:16.199Z,100409.75
2023-04-16T01:48:44.756Z,100409.03
2023-04-16T01:51:12.404Z,100408.22
2023-04-16T01:53:40.005Z,100407.47
2023-04-16T01:56:08.231Z,100401.94
2023-04-16T01:58:36.816Z,100402.88
2023-04-16T02:01:06.019Z,100412.13
2023-04-16T02:03:34.682Z,100402.28
2023-04-16T02:06:02.501Z,100408.00
2023-04-16T02:08:30.184Z,100414.72
2023-04-16T02:10:58.385Z,100424.22
2023-04-16T02:13:27.122Z,100421.44
2023-04-16T02:15:55.401Z,100422.84
2023-04-16T02:18:52.488Z,100423.31
2023-04-16T02:21:23.024Z,100413.72
2023-04-16T02:23:52.110Z,100414.19
2023-04-16T02:26:24.313Z,100419.78
2023-04-16T02:28:52.291Z,100425.78
2023-04-16T02:31:25.855Z,100411.75
2023-04-16T02:33:53.541Z,100413.66
2023-04-16T02:36:21.629Z,100419.72
2023-04-16T02:38:49.383Z,100418.31
2023-04-16T02:41:17.157Z,100421.84
2023-04-16T02:43:45.050Z,100425.63
2023-04-16T02:46:12.753Z,100427.56
2023-04-16T02:48:41.119Z,100427.78
2023-04-16T02:51:09.037Z,100424.56
2023-04-16T02:53:36.636Z,100430.84
2023-04-16T02:56:04.560Z,100431.19
2023-04-16T02:58:32.065Z,100429.94
2023-04-16T03:00:59.655Z,100428.56
2023-04-16T03:03:27.695Z,100433.09
2023-04-16T03:05:55.695Z,100436.84
2023-04-16T03:08:23.492Z,100446.28
2023-04-16T03:10:51.421Z,100442.16
2023-04-16T03:13:19.123Z,100450.53
2023-04-16T03:15:50.488Z,100451.78
2023-04-16T03:18:18.266Z,100453.22
2023-04-16T03:20:45.908Z,100446.94
2023-04-16T03:23:13.423Z,100450.47
2023-04-16T03:25:41.175Z,100456.00
2023-04-16T03:28:10.231Z,100450.28
2023-04-16T03:30:39.647Z,100455.28
2023-04-16T03:33:08.779Z,100454.78
2023-04-16T03:35:38.676Z,100466.44
2023-04-16T03:38:06.626Z,100461.19
2023-04-16T03:40:34.539Z,100469.75
2023-04-16T03:43:02.464Z,100467.88
2023-04-16T03:45:30.365Z,100463.94
2023-04-16T03:48:02.163Z,100464.28
2023-04-16T03:50:29.865Z,100479.97
2023-04-16T03:52:57.694Z,100483.00
2023-04-16T03:55:25.748Z,100477.72
2023-04-16T03:57:53.669Z,100469.78
2023-04-16T04:00:21.332Z,100479.75
2023-04-16T04:02:59.846Z,100479.41
2023-04-16T04:05:28.574Z,100477.44
2023-04-16T04:07:56.115Z,100480.56
2023-04-16T04:10:24.134Z,100481.59
2023-04-16T04:12:52.345Z,100479.59
2023-04-16T04:15:20.202Z,100487.97
2023-04-16T04:17:48.357Z,100491.84
2023-04-16T04:20:16.450Z,100483.50
2023-04-16T04:22:46.537Z,100492.25
2023-04-16T04:25:14.861Z,100483.44
2023-04-16T04:27:42.823Z,100488.75
2023-04-16T04:30:13.272Z,100481.03
2023-04-16T04:32:42.561Z,100484.44
2023-04-16T04:35:11.299Z,100490.97
2023-04-16T04:37:39.266Z,100500.72
2023-04-16T04:40:14.703Z,100503.97
2023-04-16T04:42:42.312Z,100507.47
2023-04-16T04:45:11.636Z,100503.00
2023-04-16T04:47:39.253Z,100515.72
2023-04-16T04:50:08.017Z,100515.03
2023-04-16T04:52:36.041Z,100522.16
2023-04-16T04:55:04.619Z,100520.00
2023-04-16T04:57:32.456Z,100506.09
2023-04-16T05:00:00.567Z,100511.56
2023-04-16T05:02:33.644Z,100527.47
2023-04-16T05:05:01.377Z,100514.50
2023-04-16T05:07:29.133Z,100540.69
2023-04-16T05:09:56.889Z,100533.72
2023-04-16T05:12:24.802Z,100533.91
2023-04-16T05:14:52.670Z,100541.47
2023-04-16T05:17:21.113Z,100541.53
2023-04-16T05:19:48.755Z,100547.97
2023-04-16T05:22:19.317Z,100556.31
2023-04-16T05:24:47.078Z,100557.69
2023-04-16T05:27:15.434Z,100560.28
2023-04-16T05:29:43.077Z,100563.41
2023-04-16T05:32:11.043Z,100560.50
2023-04-16T05:34:40.694Z,100561.25
2023-04-16T05:37:08.514Z,100566.88
2023-04-16T05:39:37.052Z,100574.91
2023-04-16T05:42:04.875Z,100578.63
2023-04-16T05:44:32.713Z,100583.94
2023-04-16T05:47:00.286Z,100580.41
2023-04-16T05:49:27.767Z,100588.19
2023-04-16T05:51:55.519Z,100596.94
2023-04-16T05:54:23.154Z,100592.16
2023-04-16T05:56:50.689Z,100601.09
2023-04-16T05:59:18.209Z,100598.44
2023-04-16T06:01:45.726Z,100617.09
2023-04-16T06:04:13.652Z,100602.31
2023-04-16T06:06:41.353Z,100604.88
2023-04-16T06:09:09.209Z,100600.13
2023-04-16T06:11:37.226Z,100601.53
2023-04-16T06:14:05.046Z,100609.72
2023-04-16T06:16:32.840Z,100606.88
2023-04-16T06:19:00.393Z,100612.16
2023-04-16T06:21:28.853Z,100611.19
2023-04-16T06:23:57.017Z,100598.59
2023-04-16T06:26:24.576Z,100613.81
2023-04-16T06:28:52.014Z,100608.88
2023-04-16T06:31:21.753Z,100611.28
2023-04-16T06:33:49.420Z,100608.69
2023-04-16T06:36:16.996Z,100607.56
2023-04-16T06:38:44.565Z,100610.72
2023-04-16T06:41:13.771Z,100616.06
2023-04-16T06:43:41.441Z,100615.09
2023-04-16T06:46:09.200Z,100613.66
2023-04-16T06:48:36.696Z,100621.47
2023-04-16T06:51:04.420Z,100621.72
2023-04-16T06:53:32.088Z,100626.72
2023-04-16T06:55:59.749Z,100616.13
2023-04-16T06:58:27.473Z,100621.63
2023-04-16T07:00:55.285Z,100623.38
2023-04-16T07:03:22.930Z,100624.28
2023-04-16T07:05:50.741Z,100616.94
2023-04-16T07:08:18.118Z,100626.56
2023-04-16T07:10:45.656Z,100617.25
2023-04-16T07:13:13.420Z,100626.53
2023-04-16T07:15:41.083Z,100623.47
2023-04-16T07:18:08.678Z,100629.75
2023-04-16T07:20:36.528Z,100627.78
2023-04-16T07:23:03.941Z,100613.97
2023-04-16T07:25:31.808Z,100621.31
2023-04-16T07:27:59.410Z,100607.91
2023-04-16T07:30:32.933Z,100603.28
2023-04-16T07:33:01.789Z,100611.38
2023-04-16T07:35:30.433Z,100622.13
2023-04-16T07:37:58.010Z,100619.06
2023-04-16T07:40:25.572Z,100613.44
2023-04-16T07:42:53.375Z,100614.13
2023-04-16T07:45:20.901Z,100611.31
2023-04-16T07:47:48.603Z,100620.28
2023-04-16T07:50:16.527Z,100626.22
2023-04-16T07:52:45.456Z,100625.09
2023-04-16T07:55:12.979Z,100622.63
2023-04-16T07:57:41.539Z,100634.53
2023-04-16T08:00:09.651Z,100633.56
2023-04-16T08:02:43.912Z,100643.69
2023-04-16T08:05:12.614Z,100633.88
2023-04-16T08:07:40.254Z,100629.81
2023-04-16T08:10:08.621Z,100629.09
2023-04-16T08:12:36.179Z,100633.81
2023-04-16T08:15:03.938Z,100636.28
2023-04-16T08:17:33.232Z,100632.38
2023-04-16T08:20:00.749Z,100631.00
2023-04-16T08:22:28.217Z,100638.53
2023-04-16T08:24:55.816Z,100631.63
2023-04-16T08:27:23.376Z,100630.34
2023-04-16T08:29:51.128Z,100632.72
2023-04-16T08:32:18.787Z,100636.03
2023-04-16T08:34:46.596Z,100636.50
2023-04-16T08:37:14.064Z,100637.94
2023-04-16T08:39:41.841Z,100630.56
2023-04-16T08:42:19.122Z,100634.66
2023-04-16T08:44:49.630Z,100634.94
2023-04-16T08:47:17.709Z,100642.88
2023-04-16T08:49:48.917Z,100637.25
2023-04-16T08:52:22.113Z,100648.44
2023-04-16T08:55:12.161Z,100651.81
2023-04-16T08:57:48.552Z,100654.88
2023-04-16T09:00:16.727Z,100653.56
2023-04-16T09:02:45.045Z,100650.00
2023-04-16T09:05:17.190Z,100641.25
2023-04-16T09:07:48.672Z,100646.66
2023-04-16T09:10:16.688Z,100646.31
2023-04-16T09:12:44.689Z,100650.31
2023-04-16T09:15:14.035Z,100647.72
2023-04-16T09:17:42.424Z,100646.78
2023-04-16T09:20:11.033Z,100648.88
2023-04-16T09:22:40.423Z,100651.56
2023-04-16T09:25:08.518Z,100644.94
2023-04-16T09:27:36.776Z,100656.63
2023-04-16T09:30:24.549Z,100651.38
2023-04-16T09:32:53.376Z,100655.00
2023-04-16T09:35:21.633Z,100659.03
2023-04-16T09:37:58.748Z,100663.41
2023-04-16T09:40:27.789Z,100653.81
2023-04-16T09:43:00.568Z,100633.53
2023-04-16T09:45:32.248Z,100643.44
2023-04-16T09:48:05.107Z,100646.25
2023-04-16T09:50:32.719Z,100640.09
2023-04-16T09:53:03.667Z,100648.63
2023-04-16T09:55:32.797Z,100639.53
2023-04-16T09:58:01.303Z,100637.94
2023-04-16T10:00:30.646Z,100638.53
2023-04-16T10:03:05.878Z,100637.25
2023-04-16T10:05:33.812Z,100632.53
2023-04-16T10:08:02.206Z,100634.25
2023-04-16T10:10:30.153Z,100631.00
2023-04-16T10:12:58.219Z,100632.94
2023-04-16T10:15:26.131Z,100628.22
2023-04-16T10:17:54.201Z,100625.34
2023-04-16T10:20:23.930Z,100629.72
2023-04-16T10:22:52.160Z,100636.53
2023-04-16T10:25:20.235Z,100628.63
2023-04-16T10:27:48.205Z,100627.38
2023-04-16T10:30:16.875Z,100636.38
2023-04-16T10:32:46.495Z,100632.25
2023-04-16T10:35:21.476Z,100636.34
2023-04-16T10:37:49.281Z,100630.63
2023-04-16T10:40:27.737Z,100633.22
2023-04-16T10:42:59.567Z,100629.94
2023-04-16T10:45:38.113Z,100626.38
2023-04-16T10:48:10.117Z,100624.13
2023-04-16T10:50:38.008Z,100616.56
2023-04-16T10:53:27.286Z,100616.44
2023-04-16T10:56:04.774Z,100612.28
2023-04-16T10:58:36.321Z,100613.63
2023-04-16T11:01:34.174Z,100622.66
2023-04-16T11:04:22.200Z,100620.69
2023-04-16T11:07:14.715Z,100617.06
2023-04-16T11:10:03.201Z,100609.81
2023-04-16T11:12:40.263Z,100612.19
2023-04-16T11:15:10.530Z,100615.19
2023-04-16T11:17:40.556Z,100603.63
2023-04-16T11:20:20.865Z,100597.25
2023-04-16T11:22:54.995Z,100594.22
2023-04-16T11:25:23.955Z,100599.31
2023-04-16T11:27:52.326Z,100584.38
2023-04-16T11:30:29.649Z,100585.13
2023-04-16T11:32:57.462Z,100598.69
2023-04-16T11:35:25.307Z,100597.91
2023-04-16T11:37:57.326Z,100590.16
2023-04-16T11:40:26.176Z,100591.69
2023-04-16T11:42:53.733Z,100594.28
2023-04-16T11:45:21.682Z,100586.06
2023-04-16T11:47:56.839Z,100592.50
2023-04-16T11:50:26.296Z,100586.78
2023-04-16T11:52:55.868Z,100583.50
2023-04-16T11:55:24.537Z,100581.53
2023-04-16T11:57:52.408Z,100585.59
2023-04-16T12:00:22.506Z,100574.19
2023-04-16T12:02:54.589Z,100581.72
2023-04-16T12:05:40.802Z,100574.66
2023-04-16T12:08:10.240Z,100582.63
2023-04-16T12:10:54.969Z,100577.47
2023-04-16T12:13:23.365Z,100577.63
2023-04-16T12:15:52.868Z,100570.72
2023-04-16T12:18:23.071Z,100570.72
2023-04-16T12:20:51.761Z,100570.84
2023-04-16T12:23:29.587Z,100564.97
2023-04-16T12:26:02.371Z,100560.03
2023-04-16T12:28:36.800Z,100565.31
2023-04-16T12:31:05.874Z,100551.44
2023-04-16T12:33:34.832Z,100562.25
2023-04-16T12:36:17.864Z,100556.72
2023-04-16T12:38:46.118Z,100549.09
2023-04-16T12:41:17.052Z,100548.41
2023-04-16T12:43:45.377Z,100556.94
2023-04-16T12:46:12.984Z,100560.50
2023-04-16T12:48:41.773Z,100544.13
2023-04-16T12:51:11.911Z,100538.53
2023-04-16T12:56:07.426Z,100541.53
2023-04-16T12:58:35.292Z,100548.22
2023-04-16T13:01:02.790Z,100545.00
2023-04-16T13:03:31.235Z,100551.34
2023-04-16T13:05:58.968Z,100547.88
2023-04-16T13:08:26.570Z,100541.19
2023-04-16T13:10:53.979Z,100542.94
2023-04-16T13:13:21.402Z,100535.72
2023-04-16T13:15:48.827Z,100535.75
2023-04-16T13:18:16.415Z,100535.69
2023-04-16T13:20:44.273Z,100524.56
2023-04-16T13:23:12.092Z,100529.06
2023-04-16T13:25:39.554Z,100526.59
2023-04-16T13:28:07.261Z,100532.56
2023-04-16T13:30:35.068Z,100526.34
2023-04-16T13:33:02.642Z,100522.31
2023-04-16T13:35:30.962Z,100533.31
2023-04-16T13:38:01.823Z,100530.72
2023-04-16T13:40:29.320Z,100518.38
2023-04-16T13:42:56.820Z,100528.66
2023-04-16T13:45:24.506Z,100525.72
2023-04-16T13:47:52.035Z,100532.97
2023-04-16T13:50:19.759Z,100521.75
2023-04-16T13:52:47.446Z,100526.53
2023-04-16T13:55:18.146Z,100530.28
2023-04-16T13:58:04.519Z,100533.13
2023-04-16T14:00:34.699Z,100540.34
2023-04-16T14:03:02.546Z,100537.72
2023-04-16T14:05:30.149Z,100543.66
2023-04-16T14:07:57.787Z,100540.44
2023-04-16T14:10:25.450Z,100543.53
2023-04-16T14:12:53.692Z,100539.94
2023-04-16T14:15:21.312Z,100543.25
2023-04-16T14:17:48.922Z,100544.84
2023-04-16T14:20:16.562Z,100540.81
2023-04-16T14:22:44.996Z,100541.13
2023-04-16T14:25:13.137Z,100544.56
2023-04-16T14:27:41.571Z,100535.59
2023-04-16T14:30:10.029Z,100536.56
2023-04-16T14:32:37.859Z,100543.94
2023-04-16T14:35:06.532Z,100538.72
2023-04-16T14:37:36.006Z,100537.31
2023-04-16T14:40:09.040Z,100532.19
2023-04-16T14:42:37.763Z,100542.00
2023-04-16T14:45:06.893Z,100543.97
2023-04-16T14:47:35.675Z,100554.47
2023-04-16T14:50:03.860Z,100553.22
2023-04-16T14:52:32.273Z,100548.94
2023-04-16T14:54:59.902Z,100551.25
2023-04-16T14:57:27.588Z,100542.00
2023-04-16T14:59:55.011Z,100541.69
2023-04-16T15:02:22.753Z,100545.38
2023-04-16T15:04:50.427Z,100556.72
2023-04-16T15:07:18.001Z,100559.03
2023-04-16T15:09:45.545Z,100547.91
2023-04-16T15:12:13.212Z,100558.13
2023-04-16T15:14:41.253Z,100560.53
2023-04-16T15:17:09.715Z,100550.78
2023-04-16T15:19:37.302Z,100554.47
2023-04-16T15:22:04.970Z,100558.69
2023-04-16T15:24:32.671Z,100562.00
2023-04-16T15:27:02.275Z,100562.34
2023-04-16T15:29:29.818Z,100573.06
2023-04-16T15:31:57.394Z,100560.41
2023-04-16T15:34:24.875Z,100553.19
2023-04-16T15:36:52.400Z,100559.88
2023-04-16T15:39:21.054Z,100568.94
2023-04-16T15:42:00.753Z,100560.56
2023-04-16T15:44:31.075Z,100576.19
2023-04-16T15:46:59.043Z,100567.38
2023-04-16T15:49:26.934Z,100576.06
2023-04-16T15:51:55.699Z,100576.56
2023-04-16T15:54:23.773Z,100574.31
2023-04-16T15:56:51.658Z,100579.56
2023-04-16T15:59:21.181Z,100580.75
2023-04-16T16:01:49.369Z,100581.03
2023-04-16T16:04:17.251Z,100581.41
2023-04-16T16:06:47.936Z,100583.81
2023-04-16T16:09:15.695Z,100587.97
2023-04-16T16:11:43.566Z,100594.97
2023-04-16T16:14:11.444Z,100590.91
2023-04-16T16:16:40.028Z,100591.47
2023-04-16T16:19:07.869Z,100584.88
2023-04-16T16:21:35.544Z,100596.03
2023-04-16T16:24:03.192Z,100602.69
2023-04-16T16:26:31.262Z,100600.63
2023-04-16T16:28:58.821Z,100598.94
2023-04-16T16:31:27.154Z,100603.44
2023-04-16T16:33:54.983Z,100599.00
2023-04-16T16:36:26.863Z,100610.50
2023-04-16T16:38:55.153Z,100603.19
2023-04-16T16:41:22.914Z,100600.78
2023-04-16T16:43:51.077Z,100610.63
2023-04-16T16:46:18.832Z,100623.28
2023-04-16T16:48:46.581Z,100617.75
2023-04-16T16:51:16.907Z,100626.75
2023-04-16T16:53:46.665Z,100630.91
2023-04-16T16:56:14.452Z,100638.09
2023-04-16T16:58:42.056Z,100648.00
2023-04-16T17:01:10.408Z,100627.44
2023-04-16T17:03:38.086Z,100651.16
2023-04-16T17:06:05.974Z,100652.38
2023-04-16T17:08:33.827Z,100657.28
2023-04-16T17:11:05.104Z,100655.00
2023-04-16T17:13:32.842Z,100661.06
2023-04-16T17:16:01.349Z,100659.59
2023-04-16T17:18:29.114Z,100662.63
2023-04-16T17:20:56.760Z,100665.72
2023-04-16T17:23:24.818Z,100675.38
2023-04-16T17:25:52.313Z,100674.13
2023-04-16T17:28:20.925Z,100681.91
2023-04-16T17:30:53.248Z,100683.41
2023-04-16T17:33:21.085Z,100685.75
2023-04-16T17:35:48.656Z,100703.84
2023-04-16T17:38:16.172Z,100692.22
2023-04-16T17:40:43.604Z,100698.94
2023-04-16T17:43:11.104Z,100713.84
2023-04-16T17:45:38.610Z,100707.25
2023-04-16T17:48:06.498Z,100709.56
2023-04-16T17:50:34.233Z,100712.88
2023-04-16T17:53:03.865Z,100712.72
2023-04-16T17:55:31.766Z,100719.25
2023-04-16T17:58:00.508Z,100720.56
2023-04-16T18:00:28.132Z,100723.84
2023-04-16T18:02:57.023Z,100714.72
2023-04-16T18:05:24.784Z,100732.56
2023-04-16T18:07:53.435Z,100733.28
2023-04-16T18:10:22.759Z,100732.28
2023-04-16T18:12:50.204Z,100734.25
2023-04-16T18:15:17.858Z,100736.47
2023-04-16T18:17:45.437Z,100737.31
2023-04-16T18:20:16.757Z,100734.25
2023-04-16T18:22:44.602Z,100744.88
2023-04-16T18:25:12.310Z,100744.53
2023-04-16T18:27:39.947Z,100759.75
2023-04-16T18:30:17.498Z,100751.38
2023-04-16T18:33:09.875Z,100751.00
2023-04-16T18:35:34.892Z,100760.63
2023-04-16T18:38:02.884Z,100758.16
2023-04-16T18:40:34.353Z,100760.03
2023-04-16T18:43:02.846Z,100763.59
2023-04-16T18:45:31.203Z,100760.28
2023-04-16T18:48:03.694Z,100769.22
2023-04-16T18:50:31.165Z,100775.28
2023-04-16T18:52:58.727Z,100773.28
2023-04-16T18:55:26.191Z,100775.81
2023-04-16T18:57:55.091Z,100772.50
2023-04-16T19:00:22.828Z,100768.06
2023-04-16T19:02:50.642Z,100785.56
2023-04-16T19:05:18.749Z,100778.31
2023-04-16T19:07:46.301Z,100780.13
2023-04-16T19:10:14.011Z,100789.38
2023-04-16T19:12:41.515Z,100786.06
2023-04-16T19:15:09.444Z,100787.94
2023-04-16T19:17:37.094Z,100797.44
2023-04-16T19:20:10.565Z,100797.19
2023-04-16T19:22:38.603Z,100794.75
2023-04-16T19:25:07.242Z,100812.31
2023-04-16T19:27:35.035Z,100806.75
2023-04-16T19:30:03.598Z,100805.94
2023-04-16T19:32:32.081Z,100809.94
2023-04-16T19:34:59.800Z,100808.06
2023-04-16T19:37:27.630Z,100808.19
2023-04-16T19:39:55.309Z,100812.47
2023-04-16T19:42:22.998Z,100816.34
2023-04-16T19:44:50.738Z,100826.50
2023-04-16T19:47:19.956Z,100810.00
2023-04-16T19:49:47.597Z,100813.31
2023-04-16T19:52:16.437Z,100822.53
2023-04-16T19:54:44.788Z,100818.78
2023-04-16T19:57:12.244Z,100818.78
2023-04-16T19:59:39.774Z,100819.78
2023-04-16T20:02:07.353Z,100817.25
2023-04-16T20:04:35.975Z,100815.97
2023-04-16T20:07:03.678Z,100823.94
2023-04-16T20:09:31.140Z,100814.72
2023-04-16T20:11:58.881Z,100814.94
2023-04-16T20:14:26.408Z,100817.09
2023-04-16T20:16:53.931Z,100825.75
2023-04-16T20:19:22.140Z,100823.53
2023-04-16T20:21:49.670Z,100821.16
2023-04-16T20:24:17.159Z,100824.69
2023-04-16T20:26:44.610Z,100828.75
2023-04-16T20:29:12.523Z,100815.78
2023-04-16T20:31:42.757Z,100819.13
2023-04-16T20:34:10.259Z,100820.41
2023-04-16T20:36:37.698Z,100808.41
2023-04-16T20:39:08.208Z,100816.22
2023-04-16T20:41:36.252Z,100815.16
2023-04-16T20:44:05.638Z,100826.28
2023-04-16T20:46:36.225Z,100825.34
2023-04-16T20:49:03.692Z,100826.72
2023-04-16T20:51:31.619Z,100817.97
2023-04-16T20:53:59.018Z,100822.09
2023-04-16T20:56:26.585Z,100823.59
2023-04-16T20:58:54.064Z,100820.06
2023-04-16T21:01:21.571Z,100819.03
2023-04-16T21:03:49.172Z,100824.50
2023-04-16T21:06:17.816Z,100819.44
2023-04-16T21:08:45.406Z,100824.06
2023-04-16T21:11:13.192Z,100822.03
2023-04-16T21:13:40.528Z,100822.34
2023-04-16T21:16:09.913Z,100820.25
2023-04-16T21:18:38.291Z,100818.41
2023-04-16T21:21:06.107Z,100830.31
2023-04-16T21:23:33.851Z,100821.53
2023-04-16T21:26:08.874Z,100819.59
2023-04-16T21:28:36.396Z,100807.50
2023-04-16T21:31:04.194Z,100829.09
2023-04-16T21:33:34.831Z,100826.63
2023-04-16T21:36:02.412Z,100821.59
2023-04-16T21:38:30.094Z,100819.22
2023-04-16T21:40:57.481Z,100822.66
2023-04-16T21:43:26.792Z,100825.19
2023-04-16T21:45:54.934Z,100819.84
2023-04-16T21:48:23.225Z,100822.00
2023-04-16T21:51:06.829Z,100817.47
2023-04-16T21:53:40.174Z,100818.94
2023-04-16T21:56:08.195Z,100824.22
2023-04-16T21:58:39.532Z,100818.50
2023-04-16T22:01:09.544Z,100819.06
2023-04-16T22:03:40.747Z,100813.22
2023-04-16T22:06:11.713Z,100826.59
2023-04-16T22:08:42.153Z,100804.34
2023-04-16T22:11:10.249Z,100810.56
2023-04-16T22:13:42.478Z,100808.28
2023-04-16T22:16:11.734Z,100806.78
2023-04-16T22:18:41.120Z,100804.75
2023-04-16T22:21:08.551Z,100810.19
2023-04-16T22:23:35.982Z,100811.81
2023-04-16T22:26:04.256Z,100805.63
2023-04-16T22:28:31.768Z,100808.28
2023-04-16T22:30:59.503Z,100806.97
2023-04-16T22:33:30.587Z,100809.53
2023-04-16T22:36:00.240Z,100809.25
2023-04-16T22:38:27.766Z,100810.38
2023-04-16T22:40:55.388Z,100812.63
2023-04-16T22:43:23.234Z,100811.69
2023-04-16T22:46:00.212Z,100808.44
2023-04-16T22:48:28.084Z,100814.06
2023-04-16T22:50:55.573Z,100816.28
2023-04-16T22:53:23.153Z,100815.13
2023-04-16T22:55:51.208Z,100801.09
2023-04-16T22:58:18.829Z,100806.97
2023-04-16T23:00:47.713Z,100803.81
2023-04-16T23:03:15.877Z,100799.97
2023-04-16T23:05:43.373Z,100795.75
2023-04-16T23:08:11.049Z,100800.28
2023-04-16T23:10:38.893Z,100798.28
2023-04-16T23:13:06.485Z,100795.38
2023-04-16T23:15:34.260Z,100792.03
2023-04-16T23:18:02.049Z,100793.00
2023-04-16T23:20:29.611Z,100785.06
2023-04-16T23:22:57.489Z,100798.00
2023-04-16T23:25:25.725Z,100798.00
2023-04-16T23:27:53.272Z,100795.94
2023-04-16T23:30:20.926Z,100791.75
2023-04-16T23:32:49.094Z,100788.28
2023-04-16T23:35:22.808Z,100798.50
2023-04-16T23:37:50.979Z,100788.69
2023-04-16T23:40:18.559Z,100790.25
2023-04-16T23:42:46.091Z,100780.31
2023-04-16T23:45:13.721Z,100786.78
2023-04-16T23:47:41.473Z,100782.09
2023-04-16T23:50:09.084Z,100778.28
2023-04-16T23:52:36.583Z,100773.63
2023-04-16T23:55:04.406Z,100771.31
2023-04-16T23:57:31.822Z,100776.94
2023-04-16T23:59:59.743Z,100770.88
